createdAt,value
2022-11-25T00:01:52.393Z,4.62
2022-11-25T00:06:53.592Z,4.15
2022-11-25T00:11:54.310Z,4.35
2022-11-25T00:16:55.144Z,4.28
2022-11-25T00:21:55.978Z,6.03
2022-11-25T00:26:56.962Z,4.35
2022-11-25T00:31:57.783Z,4.97
2022-11-25T00:36:58.660Z,6.40
2022-11-25T00:42:17.986Z,11.82
2022-11-25T00:47:20.668Z,4.85
2022-11-25T00:52:25.079Z,19.95
2022-11-25T00:57:26.030Z,4.15
2022-11-25T01:02:27.216Z,6.30
2022-11-25T01:07:28.629Z,4.82
2022-11-25T01:12:29.738Z,4.90
2022-11-25T01:17:31.653Z,4.10
2022-11-25T01:22:32.421Z,5.28
2022-11-25T01:27:33.170Z,4.47
2022-11-25T01:32:33.978Z,4.82
2022-11-25T01:37:34.810Z,4.95
2022-11-25T01:42:47.556Z,3.65
2022-11-25T01:47:50.441Z,4.20
2022-11-25T01:52:54.583Z,4.12
2022-11-25T01:58:30.943Z,4.35
2022-11-25T02:03:38.578Z,3.55
2022-11-25T02:08:42.683Z,4.00
2022-11-25T02:13:46.933Z,4.97
2022-11-25T02:18:49.695Z,4.35
2022-11-25T02:23:59.709Z,4.15
2022-11-25T02:29:00.915Z,4.25
2022-11-25T02:34:01.732Z,4.22
2022-11-25T02:39:02.820Z,3.72
2022-11-25T02:44:06.917Z,4.50
2022-11-25T02:49:09.573Z,3.92
2022-11-25T02:54:13.106Z,3.80
2022-11-25T02:59:13.872Z,3.83
2022-11-25T03:04:14.794Z,3.72
2022-11-25T03:09:15.929Z,3.42
2022-11-25T03:14:17.241Z,4.12
2022-11-25T03:19:17.968Z,3.40
2022-11-25T03:24:18.725Z,4.68
2022-11-25T03:29:21.574Z,3.92
2022-11-25T03:34:22.499Z,5.40
2022-11-25T03:39:23.827Z,6.75
2022-11-25T03:44:24.994Z,7.55
2022-11-25T03:49:26.125Z,6.78
2022-11-25T03:54:28.041Z,5.25
2022-11-25T03:59:46.275Z,4.93
2022-11-25T04:04:48.045Z,3.92
2022-11-25T04:09:49.927Z,4.57
2022-11-25T04:14:53.237Z,7.07
2022-11-25T04:19:54.161Z,7.00
2022-11-25T04:24:55.078Z,8.57
2022-11-25T04:29:58.737Z,8.80
2022-11-25T04:34:59.648Z,9.43
2022-11-25T04:40:01.071Z,16.75
2022-11-25T04:45:22.898Z,16.17
2022-11-25T04:50:25.416Z,14.87
2022-11-25T04:55:31.636Z,12.05
2022-11-25T05:00:33.785Z,11.75
2022-11-25T05:05:37.671Z,12.10
2022-11-25T05:10:38.616Z,13.27
2022-11-25T05:15:39.904Z,14.40
2022-11-25T05:20:41.731Z,15.68
2022-11-25T05:25:42.668Z,14.77
2022-11-25T05:31:03.123Z,14.30
2022-11-25T05:36:05.011Z,14.68
2022-11-25T05:41:14.947Z,15.15
2022-11-25T05:46:18.238Z,16.65
2022-11-25T05:51:24.380Z,16.08
2022-11-25T05:56:25.329Z,15.98
2022-11-25T06:01:40.836Z,15.48
2022-11-25T06:06:41.833Z,16.23
2022-11-25T06:11:43.165Z,15.45
2022-11-25T06:16:43.894Z,15.35
2022-11-25T06:21:55.323Z,15.27
2022-11-25T06:26:56.536Z,15.65
2022-11-25T06:31:57.611Z,15.32
2022-11-25T06:37:15.232Z,15.35
2022-11-25T06:42:16.292Z,15.63
2022-11-25T06:47:17.150Z,16.60
2022-11-25T06:52:17.937Z,15.27
2022-11-25T06:57:19.260Z,15.38
2022-11-25T07:02:20.182Z,16.42
2022-11-25T07:07:21.025Z,16.58
2022-11-25T07:12:23.821Z,17.00
2022-11-25T07:17:27.609Z,14.93
2022-11-25T07:22:28.369Z,14.20
2022-11-25T07:27:29.142Z,16.73
2022-11-25T07:32:32.736Z,15.82
2022-11-25T07:37:33.461Z,14.55
2022-11-25T07:42:34.566Z,15.93
2022-11-25T07:47:36.288Z,15.30
2022-11-25T07:52:38.812Z,18.00
2022-11-25T07:57:39.544Z,16.92
2022-11-25T08:02:40.404Z,19.30
2022-11-25T08:07:41.325Z,21.50
2022-11-25T08:12:42.359Z,23.98
2022-11-25T08:17:43.106Z,19.58
2022-11-25T08:22:43.953Z,20.25
2022-11-25T08:27:44.747Z,19.73
2022-11-25T08:32:45.577Z,17.48
2022-11-25T08:37:46.437Z,13.85
2022-11-25T08:42:47.596Z,12.43
2022-11-25T08:47:48.340Z,9.07
2022-11-25T08:52:49.192Z,7.40
2022-11-25T08:57:49.918Z,9.63
2022-11-25T09:02:50.791Z,8.05
2022-11-25T09:07:51.709Z,10.63
2022-11-25T09:12:52.750Z,6.82
2022-11-25T09:18:05.018Z,6.68
2022-11-25T09:23:07.889Z,5.30
2022-11-25T09:28:08.998Z,4.32
2022-11-25T09:33:09.815Z,5.28
2022-11-25T09:38:10.909Z,5.55
2022-11-25T09:44:50.039Z,4.47
2022-11-25T09:50:38.426Z,4.70
2022-11-25T09:55:43.995Z,4.47
2022-11-25T10:00:47.124Z,5.35
2022-11-25T10:06:34.185Z,4.10
2022-11-25T10:12:39.201Z,5.75
2022-11-25T10:17:53.429Z,3.42
2022-11-25T10:23:02.784Z,4.12
2022-11-25T10:28:15.952Z,5.45
2022-11-25T10:33:53.515Z,5.25
2022-11-25T10:39:10.673Z,5.45
2022-11-25T10:44:28.142Z,4.97
2022-11-25T10:52:11.528Z,3.95
2022-11-25T10:57:18.413Z,3.50
2022-11-25T11:02:36.453Z,4.12
2022-11-25T11:07:40.974Z,2.75
2022-11-25T11:13:05.984Z,2.60
2022-11-25T11:20:12.264Z,1.92
2022-11-25T11:25:33.010Z,1.62
2022-11-25T11:30:33.941Z,1.90
2022-11-25T11:38:19.665Z,4.20
2022-11-25T11:45:04.741Z,5.15
2022-11-25T11:50:26.706Z,6.47
2022-11-25T11:56:33.548Z,1.62
2022-11-25T12:03:21.368Z,1.90
2022-11-25T12:08:31.314Z,2.05
2022-11-25T12:17:22.788Z,1.90
2022-11-25T12:22:33.443Z,2.10
2022-11-25T12:27:40.595Z,1.95
2022-11-25T12:35:59.793Z,2.67
2022-11-25T12:42:11.297Z,2.33
2022-11-25T12:47:12.457Z,3.12
2022-11-25T12:55:45.792Z,2.08
2022-11-25T13:04:13.538Z,2.10
2022-11-25T13:09:59.025Z,2.40
2022-11-25T13:15:45.313Z,1.83
2022-11-25T13:20:49.762Z,2.15
2022-11-25T13:25:52.272Z,3.10
2022-11-25T13:30:53.316Z,2.40
2022-11-25T13:35:56.030Z,2.22
2022-11-25T13:40:59.051Z,3.55
2022-11-25T13:46:01.344Z,1.87
2022-11-25T13:51:20.124Z,2.43
2022-11-25T13:56:33.482Z,2.50
2022-11-25T14:01:34.972Z,2.05
2022-11-25T14:07:20.405Z,3.85
2022-11-25T14:15:09.912Z,4.50
2022-11-25T14:20:42.490Z,2.33
2022-11-25T14:25:51.495Z,2.40
2022-11-25T14:30:58.703Z,4.12
2022-11-25T14:36:11.156Z,2.87
2022-11-25T14:41:48.681Z,3.43
2022-11-25T14:46:54.390Z,4.40
2022-11-25T14:51:55.146Z,6.65
2022-11-25T14:56:56.207Z,7.10
2022-11-25T15:01:57.350Z,7.25
2022-11-25T15:07:01.688Z,7.45
2022-11-25T15:12:12.033Z,7.03
2022-11-25T15:17:31.622Z,8.18
2022-11-25T15:22:32.727Z,5.60
2022-11-25T15:27:33.604Z,4.12
2022-11-25T15:32:37.624Z,5.30
2022-11-25T15:37:38.795Z,4.20
2022-11-25T15:42:41.786Z,2.50
2022-11-25T15:47:44.993Z,2.60
2022-11-25T15:57:50.992Z,2.50
2022-11-25T16:02:54.684Z,3.85
2022-11-25T16:07:58.603Z,3.50
2022-11-25T16:13:36.771Z,2.47
2022-11-25T16:19:26.470Z,2.17
2022-11-25T16:24:40.779Z,2.87
2022-11-25T16:30:10.974Z,2.75
2022-11-25T16:35:18.537Z,2.45
2022-11-25T16:40:19.420Z,3.20
2022-11-25T16:45:23.099Z,3.35
2022-11-25T16:50:23.958Z,5.20
2022-11-25T16:55:25.053Z,3.97
2022-11-25T17:00:25.783Z,4.18
2022-11-25T17:05:26.954Z,3.50
2022-11-25T17:10:27.853Z,6.10
2022-11-25T17:15:34.789Z,21.20
2022-11-25T17:20:35.761Z,15.15
2022-11-25T17:25:37.264Z,15.43
2022-11-25T17:30:38.603Z,3.97
2022-11-25T17:35:39.349Z,9.02
2022-11-25T17:40:42.771Z,35.03
2022-11-25T17:50:46.819Z,27.58
2022-11-25T17:55:47.593Z,10.55
2022-11-25T18:00:48.752Z,6.55
2022-11-25T18:05:50.060Z,3.40
2022-11-25T18:10:51.100Z,6.53
2022-11-25T18:15:52.198Z,8.48
2022-11-25T18:20:55.103Z,3.97
2022-11-25T18:25:59.363Z,3.37
2022-11-25T18:31:04.130Z,4.45
2022-11-25T18:36:06.051Z,4.95
2022-11-25T18:41:17.881Z,6.72
2022-11-25T18:46:18.686Z,7.70
2022-11-25T18:51:19.952Z,5.40
2022-11-25T18:56:20.682Z,5.47
2022-11-25T19:01:23.122Z,3.80
2022-11-25T19:06:27.268Z,3.00
2022-11-25T19:11:32.274Z,3.35
2022-11-25T19:16:33.184Z,3.85
2022-11-25T19:21:34.271Z,3.28
2022-11-25T19:26:41.057Z,4.07
2022-11-25T19:31:41.887Z,3.87
2022-11-25T19:36:42.797Z,3.95
2022-11-25T19:41:44.519Z,6.62
2022-11-25T19:47:13.800Z,4.50
2022-11-25T19:52:19.980Z,4.28
2022-11-25T19:57:23.068Z,5.43
2022-11-25T20:02:26.042Z,3.87
2022-11-25T20:07:29.259Z,3.40
2022-11-25T20:17:32.954Z,3.83
2022-11-25T20:22:36.936Z,4.18
2022-11-25T20:27:37.720Z,4.37
2022-11-25T20:32:38.614Z,4.35
2022-11-25T20:37:50.766Z,3.30
2022-11-25T20:42:52.518Z,3.53
2022-11-25T20:47:53.272Z,3.92
2022-11-25T20:52:54.064Z,4.30
2022-11-25T20:57:54.969Z,38.65
2022-11-25T21:02:56.485Z,27.13
2022-11-25T21:07:57.414Z,52.72
2022-11-25T21:12:58.491Z,29.33
2022-11-25T21:17:59.230Z,13.52
2022-11-25T21:23:06.982Z,29.73
2022-11-25T21:28:16.358Z,40.53
2022-11-25T21:33:17.423Z,37.92
2022-11-25T21:38:22.551Z,19.30
2022-11-25T21:43:27.676Z,12.73
2022-11-25T21:48:30.218Z,6.72
2022-11-25T21:53:37.011Z,6.00
2022-11-25T21:58:39.712Z,8.75
2022-11-25T22:03:40.444Z,6.80
2022-11-25T22:08:41.260Z,4.97
2022-11-25T22:13:43.700Z,6.60
2022-11-25T22:18:44.671Z,5.60
2022-11-25T22:23:45.506Z,5.65
2022-11-25T22:28:50.836Z,4.93
2022-11-25T22:33:51.786Z,4.55
2022-11-25T22:38:52.538Z,4.32
2022-11-25T22:43:53.411Z,5.37
2022-11-25T22:48:54.461Z,4.80
2022-11-25T22:53:55.178Z,6.40
2022-11-25T22:58:59.451Z,5.10
2022-11-25T23:04:00.185Z,5.68
2022-11-25T23:09:02.230Z,6.07
2022-11-25T23:14:03.084Z,5.87
2022-11-25T23:19:04.215Z,5.25
2022-11-25T23:24:11.864Z,5.75
2022-11-25T23:29:12.633Z,5.37
2022-11-25T23:34:13.912Z,6.28
2022-11-25T23:39:18.872Z,7.10
2022-11-25T23:44:30.663Z,7.22
2022-11-25T23:49:38.228Z,4.65
2022-11-25T23:54:41.965Z,6.40
2022-11-25T23:59:43.427Z,4.50
